sensor_id;sensor_type;location;lat;lon;timestamp;pressure;altitude;pressure_sealevel;temperature;humidity
73105;BME280;61296;50.526;30.792;2023-04-26T00:10:17;98374.38;;;9.79;64.66
73105;BME280;61296;50.526;30.792;2023-04-26T00:25:36;98518.22;;;10.38;66.37
73105;BME280;61296;50.526;30.792;2023-04-26T00:40:55;98444.66;;;9.69;67.67
73105;BME280;61296;50.526;30.792;2023-04-26T00:56:20;98493.66;;;9.81;68.96
73105;BME280;61296;50.526;30.792;2023-04-26T01:11:41;98402.38;;;9.28;69.15
73105;BME280;61296;50.526;30.792;2023-04-26T01:27:01;98450.94;;;9.48;69.89
73105;BME280;61296;50.526;30.792;2023-04-26T01:42:22;98475.59;;;9.77;70.28
73105;BME280;61296;50.526;30.792;2023-04-26T01:57:41;98420.41;;;9.29;70.98
73105;BME280;61296;50.526;30.792;2023-04-26T02:13:01;98456.03;;;9.46;72.28
73105;BME280;61296;50.526;30.792;2023-04-26T02:28:21;98396.91;;;8.99;73.49
73105;BME280;61296;50.526;30.792;2023-04-26T02:43:40;98428.22;;;8.84;80.40
73105;BME280;61296;50.526;30.792;2023-04-26T02:59:00;98428.97;;;8.56;87.93
73105;BME280;61296;50.526;30.792;2023-04-26T03:14:19;98381.91;;;8.32;87.76
73105;BME280;61296;50.526;30.792;2023-04-26T03:29:39;98392.06;;;8.28;87.76
73105;BME280;61296;50.526;30.792;2023-04-26T03:45:02;98450.53;;;8.82;92.30
73105;BME280;61296;50.526;30.792;2023-04-26T04:00:22;98484.63;;;9.03;92.95
73105;BME280;61296;50.526;30.792;2023-04-26T04:15:42;98495.16;;;8.65;93.97
73105;BME280;61296;50.526;30.792;2023-04-26T04:31:01;98453.50;;;8.31;95.98
73105;BME280;61296;50.526;30.792;2023-04-26T04:46:21;98497.09;;;8.61;93.05
73105;BME280;61296;50.526;30.792;2023-04-26T05:01:41;98456.75;;;8.47;92.68
73105;BME280;61296;50.526;30.792;2023-04-26T05:17:04;98430.53;;;8.60;88.63
73105;BME280;61296;50.526;30.792;2023-04-26T05:32:24;98504.66;;;9.49;84.37
73105;BME280;61296;50.526;30.792;2023-04-26T05:48:03;98442.31;;;9.50;82.59
73105;BME280;61296;50.526;30.792;2023-04-26T06:03:23;98395.25;;;9.55;82.28
73105;BME280;61296;50.526;30.792;2023-04-26T06:18:42;98407.22;;;10.11;78.78
73105;BME280;61296;50.526;30.792;2023-04-26T06:34:03;98420.75;;;10.57;76.69
73105;BME280;61296;50.526;30.792;2023-04-26T06:49:24;98518.53;;;11.28;75.02
73105;BME280;61296;50.526;30.792;2023-04-26T07:04:45;98416.00;;;10.65;76.25
73105;BME280;61296;50.526;30.792;2023-04-26T07:20:08;98470.88;;;11.35;75.26
73105;BME280;61296;50.526;30.792;2023-04-26T07:35:28;98512.69;;;12.12;72.79
73105;BME280;61296;50.526;30.792;2023-04-26T07:50:48;98515.91;;;12.41;71.98
73105;BME280;61296;50.526;30.792;2023-04-26T08:06:08;98533.84;;;12.87;68.42
73105;BME280;61296;50.526;30.792;2023-04-26T08:21:31;98440.94;;;12.50;67.51
73105;BME280;61296;50.526;30.792;2023-04-26T08:36:51;98415.63;;;13.36;65.11
73105;BME280;61296;50.526;30.792;2023-04-26T08:52:18;98466.56;;;13.78;63.79
73105;BME280;61296;50.526;30.792;2023-04-26T09:07:46;98423.06;;;13.39;65.08
73105;BME280;61296;50.526;30.792;2023-04-26T09:23:07;98537.31;;;14.58;64.86
73105;BME280;61296;50.526;30.792;2023-04-26T09:38:29;98427.72;;;13.65;66.15
73105;BME280;61296;50.526;30.792;2023-04-26T09:54:38;98417.38;;;13.69;68.15
73105;BME280;61296;50.526;30.792;2023-04-26T10:09:57;98542.72;;;13.55;73.58
73105;BME280;61296;50.526;30.792;2023-04-26T10:25:17;98503.44;;;13.44;74.44
73105;BME280;61296;50.526;30.792;2023-04-26T10:40:38;98451.97;;;13.54;71.10
73105;BME280;61296;50.526;30.792;2023-04-26T10:55:58;98503.81;;;13.70;72.92
73105;BME280;61296;50.526;30.792;2023-04-26T11:11:17;98498.88;;;13.81;71.67
73105;BME280;61296;50.526;30.792;2023-04-26T11:26:38;98480.31;;;13.81;70.87
73105;BME280;61296;50.526;30.792;2023-04-26T11:42:04;98509.16;;;14.63;68.92
73105;BME280;61296;50.526;30.792;2023-04-26T11:57:24;98448.81;;;13.99;68.96
73105;BME280;61296;50.526;30.792;2023-04-26T12:12:50;98564.91;;;15.01;69.05
73105;BME280;61296;50.526;30.792;2023-04-26T12:28:11;98519.47;;;14.99;67.91
73105;BME280;61296;50.526;30.792;2023-04-26T12:43:31;98497.38;;;14.20;71.55
73105;BME280;61296;50.526;30.792;2023-04-26T12:58:51;98446.13;;;13.72;72.53
73105;BME280;61296;50.526;30.792;2023-04-26T13:14:10;98529.66;;;14.03;76.88
73105;BME280;61296;50.526;30.792;2023-04-26T13:29:29;98494.69;;;13.22;82.58
73105;BME280;61296;50.526;30.792;2023-04-26T13:44:49;98587.69;;;12.98;89.67
73105;BME280;61296;50.526;30.792;2023-04-26T14:00:10;98516.34;;;11.98;92.33
73105;BME280;61296;50.526;30.792;2023-04-26T14:15:33;98596.00;;;12.27;100.00
73105;BME280;61296;50.526;30.792;2023-04-26T14:30:52;98460.09;;;11.54;100.00
73105;BME280;61296;50.526;30.792;2023-04-26T14:46:24;98471.94;;;11.51;100.00
73105;BME280;61296;50.526;30.792;2023-04-26T15:01:46;98606.81;;;12.07;100.00
73105;BME280;61296;50.526;30.792;2023-04-26T15:17:10;98612.13;;;11.83;100.00
73105;BME280;61296;50.526;30.792;2023-04-26T15:32:29;98538.88;;;11.41;100.00
73105;BME280;61296;50.526;30.792;2023-04-26T15:47:49;98497.63;;;11.38;100.00
73105;BME280;61296;50.526;30.792;2023-04-26T16:03:09;98454.91;;;11.19;100.00
73105;BME280;61296;50.526;30.792;2023-04-26T16:18:29;98592.25;;;12.06;100.00
73105;BME280;61296;50.526;30.792;2023-04-26T16:33:49;98550.41;;;11.74;100.00
73105;BME280;61296;50.526;30.792;2023-04-26T16:49:09;98499.97;;;11.39;100.00
73105;BME280;61296;50.526;30.792;2023-04-26T17:21:05;98496.88;;;11.30;100.00
73105;BME280;61296;50.526;30.792;2023-04-26T17:36:29;98621.88;;;11.99;100.00
73105;BME280;61296;50.526;30.792;2023-04-26T18:08:04;98511.59;;;11.06;100.00
73105;BME280;61296;50.526;30.792;2023-04-26T18:23:24;98523.84;;;10.94;100.00
73105;BME280;61296;50.526;30.792;2023-04-26T18:38:43;98662.13;;;11.78;99.59
73105;BME280;61296;50.526;30.792;2023-04-26T18:54:03;98596.00;;;11.23;98.42
73105;BME280;61296;50.526;30.792;2023-04-26T19:09:23;98626.56;;;11.46;98.60
73105;BME280;61296;50.526;30.792;2023-04-26T19:24:47;98537.16;;;11.06;97.37
73105;BME280;61296;50.526;30.792;2023-04-26T19:40:07;98631.81;;;11.19;100.00
73105;BME280;61296;50.526;30.792;2023-04-26T19:55:28;98608.06;;;10.66;100.00
73105;BME280;61296;50.526;30.792;2023-04-26T20:10:47;98635.84;;;10.97;100.00
73105;BME280;61296;50.526;30.792;2023-04-26T20:26:07;98629.91;;;11.09;100.00
73105;BME280;61296;50.526;30.792;2023-04-26T20:41:26;98498.66;;;10.22;100.00
73105;BME280;61296;50.526;30.792;2023-04-26T20:56:46;98570.41;;;10.56;100.00
73105;BME280;61296;50.526;30.792;2023-04-26T21:12:08;98472.34;;;10.10;100.00
73105;BME280;61296;50.526;30.792;2023-04-26T21:27:31;98640.13;;;11.02;100.00
73105;BME280;61296;50.526;30.792;2023-04-26T21:42:50;98544.47;;;10.57;100.00
73105;BME280;61296;50.526;30.792;2023-04-26T21:58:10;98555.91;;;10.41;100.00
73105;BME280;61296;50.526;30.792;2023-04-26T22:13:30;98553.97;;;10.28;100.00
73105;BME280;61296;50.526;30.792;2023-04-26T22:28:50;98622.25;;;10.47;100.00
73105;BME280;61296;50.526;30.792;2023-04-26T22:44:09;98635.22;;;10.54;100.00
73105;BME280;61296;50.526;30.792;2023-04-26T22:59:29;98734.91;;;10.79;100.00
73105;BME280;61296;50.526;30.792;2023-04-26T23:15:01;98595.88;;;8.89;100.00
73105;BME280;61296;50.526;30.792;2023-04-26T23:30:24;98595.81;;;8.02;100.00
73105;BME280;61296;50.526;30.792;2023-04-26T23:45:43;98682.00;;;8.23;100.00
